createdAt,value
2022-11-14T00:01:32.731Z,2.10
2022-11-14T00:04:01.606Z,2.00
2022-11-14T00:06:34.439Z,2.53
2022-11-14T00:09:03.324Z,2.35
2022-11-14T00:11:31.831Z,2.67
2022-11-14T00:14:00.660Z,3.35
2022-11-14T00:16:29.408Z,3.63
2022-11-14T00:18:57.872Z,3.38
2022-11-14T00:21:26.707Z,3.08
2022-11-14T00:23:55.514Z,3.58
2022-11-14T00:26:24.307Z,3.45
2022-11-14T00:28:53.213Z,3.47
2022-11-14T00:31:21.963Z,2.92
2022-11-14T00:33:51.069Z,3.33
2022-11-14T00:36:19.921Z,3.00
2022-11-14T00:38:48.611Z,3.50
2022-11-14T00:41:17.309Z,3.03
2022-11-14T00:43:46.143Z,10.85
2022-11-14T00:46:14.665Z,4.90
2022-11-14T00:48:43.196Z,3.65
2022-11-14T00:51:12.148Z,21.90
2022-11-14T00:53:41.291Z,12.73
2022-11-14T00:56:10.539Z,41.70
2022-11-14T00:58:39.209Z,52.10
2022-11-14T01:01:07.986Z,10.00
2022-11-14T01:03:36.852Z,24.25
2022-11-14T01:06:07.755Z,3.90
2022-11-14T01:08:36.517Z,5.90
2022-11-14T01:11:14.530Z,8.85
2022-11-14T01:13:43.436Z,3.75
2022-11-14T01:16:12.843Z,3.90
2022-11-14T01:18:42.667Z,3.30
2022-11-14T01:21:13.543Z,2.58
2022-11-14T01:23:42.399Z,2.30
2022-11-14T01:26:13.769Z,2.03
2022-11-14T01:28:43.019Z,1.77
2022-11-14T01:31:19.404Z,1.83
2022-11-14T01:33:51.890Z,1.70
2022-11-14T01:36:20.698Z,1.67
2022-11-14T01:38:53.354Z,1.92
2022-11-14T01:41:22.633Z,1.70
2022-11-14T01:43:51.713Z,1.90
2022-11-14T01:46:37.422Z,1.65
2022-11-14T01:49:13.685Z,1.88
2022-11-14T01:52:16.302Z,1.83
2022-11-14T01:54:48.500Z,1.92
2022-11-14T01:57:21.175Z,1.83
2022-11-14T01:59:53.690Z,1.67
2022-11-14T02:02:24.882Z,1.70
2022-11-14T02:05:04.498Z,1.63
2022-11-14T02:07:36.469Z,1.98
2022-11-14T02:10:12.148Z,1.75
2022-11-14T02:12:40.997Z,2.28
2022-11-14T02:15:11.044Z,2.30
2022-11-14T02:17:39.957Z,2.20
2022-11-14T02:20:14.677Z,2.60
2022-11-14T02:22:44.651Z,2.33
2022-11-14T02:25:15.302Z,2.30
2022-11-14T02:27:43.739Z,2.00
2022-11-14T02:30:21.665Z,1.80
2022-11-14T02:33:09.910Z,1.80
2022-11-14T02:35:38.953Z,1.90
2022-11-14T02:38:07.487Z,2.00
2022-11-14T02:40:35.951Z,1.98
2022-11-14T02:43:04.785Z,1.67
2022-11-14T02:45:33.516Z,2.03
2022-11-14T02:48:02.044Z,1.60
2022-11-14T02:50:31.316Z,1.77
2022-11-14T02:52:59.748Z,1.92
2022-11-14T02:55:28.510Z,1.63
2022-11-14T02:57:57.343Z,1.95
2022-11-14T03:00:25.936Z,1.73
2022-11-14T03:02:57.573Z,2.17
2022-11-14T03:05:26.024Z,1.75
2022-11-14T03:07:56.201Z,1.75
2022-11-14T03:10:25.520Z,1.75
2022-11-14T03:12:58.216Z,1.55
2022-11-14T03:15:27.068Z,1.63
2022-11-14T03:17:55.850Z,1.85
2022-11-14T03:20:23.934Z,1.67
2022-11-14T03:22:52.770Z,1.50
2022-11-14T03:25:21.193Z,1.50
2022-11-14T03:27:50.081Z,1.92
2022-11-14T03:30:19.206Z,1.92
2022-11-14T03:32:48.183Z,1.60
2022-11-14T03:35:17.080Z,1.52
2022-11-14T03:37:45.543Z,2.00
2022-11-14T03:40:14.485Z,1.73
2022-11-14T03:42:43.027Z,1.70
2022-11-14T03:45:12.342Z,1.90
2022-11-14T03:47:40.775Z,1.90
2022-11-14T03:50:09.918Z,1.77
2022-11-14T03:52:38.801Z,1.90
2022-11-14T03:55:08.115Z,1.83
2022-11-14T03:57:37.281Z,1.60
2022-11-14T04:00:06.743Z,1.70
2022-11-14T04:02:35.571Z,1.80
2022-11-14T04:05:04.497Z,1.60
2022-11-14T04:07:33.072Z,2.00
2022-11-14T04:10:02.009Z,1.98
2022-11-14T04:12:30.877Z,2.08
2022-11-14T04:14:59.467Z,2.00
2022-11-14T04:17:28.308Z,2.17
2022-11-14T04:19:57.127Z,2.40
2022-11-14T04:22:25.878Z,1.90
2022-11-14T04:24:54.681Z,2.28
2022-11-14T04:27:23.817Z,2.10
2022-11-14T04:29:52.622Z,2.10
2022-11-14T04:32:21.382Z,2.40
2022-11-14T04:34:50.216Z,1.88
2022-11-14T04:37:18.999Z,2.03
2022-11-14T04:39:47.809Z,2.30
2022-11-14T04:42:16.755Z,2.25
2022-11-14T04:44:45.540Z,1.80
2022-11-14T04:47:14.090Z,2.25
2022-11-14T04:49:42.904Z,2.40
2022-11-14T04:52:11.694Z,2.05
2022-11-14T04:54:39.772Z,2.30
2022-11-14T04:57:08.646Z,2.53
2022-11-14T04:59:37.614Z,2.25
2022-11-14T05:02:06.055Z,1.98
2022-11-14T05:04:34.852Z,2.08
2022-11-14T05:07:03.735Z,2.30
2022-11-14T05:09:32.536Z,2.17
2022-11-14T05:12:01.378Z,2.20
2022-11-14T05:14:30.213Z,1.80
2022-11-14T05:16:59.118Z,1.88
2022-11-14T05:19:28.013Z,2.20
2022-11-14T05:21:56.749Z,2.20
2022-11-14T05:24:25.591Z,2.28
2022-11-14T05:26:56.645Z,1.77
2022-11-14T05:29:25.432Z,2.20
2022-11-14T05:31:54.262Z,2.25
2022-11-14T05:34:23.080Z,2.17
2022-11-14T05:36:51.180Z,2.05
2022-11-14T05:39:19.320Z,2.55
2022-11-14T05:41:48.038Z,2.50
2022-11-14T05:44:16.752Z,2.10
2022-11-14T05:46:45.580Z,2.60
2022-11-14T05:49:17.909Z,2.15
2022-11-14T05:51:49.497Z,2.33
2022-11-14T05:54:18.248Z,2.20
2022-11-14T05:56:46.728Z,2.20
2022-11-14T05:59:15.697Z,2.10
2022-11-14T06:01:44.701Z,2.10
2022-11-14T06:04:16.937Z,2.13
2022-11-14T06:06:48.261Z,2.20
2022-11-14T06:09:17.084Z,2.03
2022-11-14T06:11:45.795Z,2.63
2022-11-14T06:14:14.693Z,2.15
2022-11-14T06:16:43.521Z,2.13
2022-11-14T06:19:11.980Z,2.20
2022-11-14T06:21:40.698Z,2.30
2022-11-14T06:24:09.668Z,2.10
2022-11-14T06:26:38.501Z,2.50
2022-11-14T06:29:07.399Z,2.50
2022-11-14T06:31:36.253Z,2.33
2022-11-14T06:34:07.676Z,2.65
2022-11-14T06:36:36.207Z,2.47
2022-11-14T06:39:05.008Z,2.50
2022-11-14T06:41:33.752Z,2.72
2022-11-14T06:44:02.624Z,2.60
2022-11-14T06:46:31.351Z,2.90
2022-11-14T06:49:00.090Z,2.60
2022-11-14T06:51:28.903Z,2.70
2022-11-14T06:53:57.839Z,2.50
2022-11-14T06:56:26.601Z,2.40
2022-11-14T06:58:55.817Z,2.55
2022-11-14T07:01:27.543Z,2.33
2022-11-14T07:03:55.974Z,2.50
2022-11-14T07:06:27.889Z,2.53
2022-11-14T07:08:57.840Z,2.20
2022-11-14T07:11:30.865Z,2.22
2022-11-14T07:14:04.194Z,2.33
2022-11-14T07:16:37.676Z,2.10
2022-11-14T07:19:12.864Z,2.25
2022-11-14T07:21:42.308Z,2.20
2022-11-14T07:24:10.385Z,2.00
2022-11-14T07:26:39.195Z,2.25
2022-11-14T07:29:07.671Z,2.10
2022-11-14T07:31:36.096Z,2.00
2022-11-14T07:34:04.935Z,1.85
2022-11-14T07:36:33.398Z,1.95
2022-11-14T07:39:02.130Z,1.88
2022-11-14T07:41:30.992Z,2.33
2022-11-14T07:43:59.759Z,2.08
2022-11-14T07:46:28.225Z,2.00
2022-11-14T07:48:56.452Z,2.10
2022-11-14T07:51:27.772Z,1.98
2022-11-14T07:53:57.190Z,2.00
2022-11-14T07:56:28.110Z,2.15
2022-11-14T07:58:56.934Z,2.45
2022-11-14T08:01:28.635Z,2.50
2022-11-14T08:03:57.521Z,2.35
2022-11-14T08:06:26.292Z,2.38
2022-11-14T08:08:55.018Z,2.60
2022-11-14T08:11:43.358Z,2.22
2022-11-14T08:14:12.176Z,2.92
2022-11-14T08:16:41.009Z,2.80
2022-11-14T08:19:10.033Z,2.60
2022-11-14T08:21:38.763Z,2.70
2022-11-14T08:24:07.774Z,2.80
2022-11-14T08:26:36.966Z,2.75
2022-11-14T08:29:05.780Z,2.58
2022-11-14T08:31:34.524Z,2.90
2022-11-14T08:34:03.288Z,2.80
2022-11-14T08:36:32.105Z,3.17
2022-11-14T08:39:02.102Z,2.95
2022-11-14T08:41:31.306Z,2.70
2022-11-14T08:43:59.815Z,3.60
2022-11-14T08:46:28.576Z,3.25
2022-11-14T08:48:57.413Z,2.78
2022-11-14T08:51:25.870Z,3.17
2022-11-14T08:53:54.389Z,3.03
2022-11-14T08:56:23.332Z,3.13
2022-11-14T08:58:52.527Z,2.80
2022-11-14T09:01:20.963Z,3.13
2022-11-14T09:03:50.779Z,3.08
2022-11-14T09:06:21.802Z,2.88
2022-11-14T09:08:50.614Z,2.90
2022-11-14T09:11:19.495Z,3.20
2022-11-14T09:13:48.434Z,2.75
2022-11-14T09:16:17.309Z,3.10
2022-11-14T09:18:45.766Z,2.83
2022-11-14T09:21:14.547Z,3.05
2022-11-14T09:23:43.340Z,3.00
2022-11-14T09:26:11.834Z,3.00
2022-11-14T09:28:40.683Z,3.05
2022-11-14T09:31:13.350Z,2.80
2022-11-14T09:33:42.216Z,3.00
2022-11-14T09:36:17.222Z,2.83
2022-11-14T09:38:46.612Z,3.10
2022-11-14T09:41:18.330Z,3.00
2022-11-14T09:44:23.009Z,2.63
2022-11-14T09:46:58.162Z,2.97
2022-11-14T09:49:56.040Z,2.70
2022-11-14T09:52:33.178Z,2.50
2022-11-14T09:55:13.278Z,2.90
2022-11-14T09:57:45.589Z,2.70
2022-11-14T10:00:22.626Z,2.92
2022-11-14T10:03:02.620Z,2.78
2022-11-14T10:05:53.155Z,2.88
2022-11-14T10:08:31.598Z,3.05
2022-11-14T10:11:19.083Z,2.90
2022-11-14T10:14:08.934Z,3.05
2022-11-14T10:16:37.606Z,3.17
2022-11-14T10:19:24.075Z,2.90
2022-11-14T10:22:17.000Z,3.00
2022-11-14T10:25:09.720Z,2.72
2022-11-14T10:28:06.500Z,2.97
2022-11-14T10:30:43.181Z,2.65
2022-11-14T10:33:29.801Z,2.80
2022-11-14T10:36:36.579Z,2.40
2022-11-14T10:39:53.776Z,3.00
2022-11-14T10:42:32.875Z,2.97
2022-11-14T10:45:06.650Z,2.80
2022-11-14T10:47:43.477Z,2.90
2022-11-14T10:50:30.093Z,3.13
2022-11-14T10:53:02.598Z,2.90
2022-11-14T10:56:02.552Z,2.50
2022-11-14T10:58:20.449Z,3.05
2022-11-14T11:00:49.510Z,2.85
2022-11-14T11:03:18.351Z,2.42
2022-11-14T11:05:50.182Z,2.70
2022-11-14T11:08:44.046Z,2.67
2022-11-14T11:11:31.499Z,2.72
2022-11-14T11:14:02.441Z,3.00
2022-11-14T11:16:31.253Z,2.80
2022-11-14T11:19:17.391Z,2.80
2022-11-14T11:21:51.937Z,3.00
2022-11-14T11:24:35.568Z,2.72
2022-11-14T11:27:29.069Z,2.75
2022-11-14T11:30:27.342Z,2.33
2022-11-14T11:32:56.091Z,2.53
2022-11-14T11:35:24.550Z,2.70
2022-11-14T11:37:58.058Z,2.55
2022-11-14T11:40:31.036Z,2.78
2022-11-14T11:45:55.439Z,2.40
2022-11-14T11:48:25.598Z,2.38
2022-11-14T11:50:54.502Z,2.55
2022-11-14T11:53:50.252Z,2.60
2022-11-14T11:56:24.284Z,2.60
2022-11-14T11:58:59.120Z,2.30
2022-11-14T12:01:27.974Z,2.65
2022-11-14T12:03:56.893Z,2.80
2022-11-14T12:06:31.274Z,2.63
2022-11-14T12:10:03.229Z,2.90
2022-11-14T12:12:44.012Z,2.50
2022-11-14T12:15:38.428Z,2.83
2022-11-14T12:18:45.183Z,2.55
2022-11-14T12:21:22.644Z,2.55
2022-11-14T12:24:01.601Z,2.53
2022-11-14T12:26:35.083Z,2.20
2022-11-14T12:29:31.932Z,2.53
2022-11-14T12:32:06.390Z,2.60
2022-11-14T12:34:47.013Z,2.63
2022-11-14T12:37:30.450Z,2.50
2022-11-14T12:40:01.470Z,2.47
2022-11-14T12:42:30.380Z,2.67
2022-11-14T12:44:59.199Z,2.45
2022-11-14T12:47:29.440Z,2.60
2022-11-14T12:49:59.368Z,2.60
2022-11-14T12:52:46.162Z,2.72
2022-11-14T12:55:26.468Z,2.33
2022-11-14T12:58:44.817Z,2.40
2022-11-14T13:01:16.509Z,2.40
2022-11-14T13:04:00.296Z,2.35
2022-11-14T13:06:51.239Z,2.17
2022-11-14T13:10:15.449Z,2.47
2022-11-14T13:13:08.723Z,2.30
2022-11-14T13:16:12.907Z,2.87
2022-11-14T13:19:12.168Z,2.35
2022-11-14T13:21:50.235Z,2.47
2022-11-14T13:24:20.957Z,2.67
2022-11-14T13:26:52.423Z,2.70
2022-11-14T13:29:42.513Z,2.92
2022-11-14T13:32:14.770Z,2.60
2022-11-14T13:35:00.627Z,2.53
2022-11-14T13:37:45.493Z,2.80
2022-11-14T13:40:40.948Z,2.42
2022-11-14T13:43:09.441Z,2.58
2022-11-14T13:45:50.834Z,2.53
2022-11-14T13:48:47.517Z,2.60
2022-11-14T13:51:42.233Z,2.58
2022-11-14T13:54:18.690Z,2.83
2022-11-14T13:57:15.151Z,2.88
2022-11-14T13:59:59.726Z,2.38
2022-11-14T14:02:38.953Z,2.80
2022-11-14T14:05:44.377Z,2.60
2022-11-14T14:08:26.698Z,3.10
2022-11-14T14:11:04.917Z,2.70
2022-11-14T14:14:00.896Z,2.75
2022-11-14T14:16:41.279Z,2.88
2022-11-14T14:19:25.507Z,2.45
2022-11-14T14:22:10.303Z,2.58
2022-11-14T14:24:57.196Z,2.80
2022-11-14T14:27:48.155Z,2.85
2022-11-14T14:30:18.646Z,2.78
2022-11-14T14:33:09.627Z,2.75
2022-11-14T14:35:41.210Z,2.88
2022-11-14T14:38:26.011Z,2.58
2022-11-14T14:40:57.436Z,2.50
2022-11-14T14:43:32.389Z,2.88
2022-11-14T14:46:01.605Z,2.95
2022-11-14T14:48:33.164Z,2.50
2022-11-14T14:51:04.108Z,2.90
2022-11-14T14:53:35.512Z,2.40
2022-11-14T14:56:10.006Z,2.38
2022-11-14T14:58:39.840Z,2.78
2022-11-14T15:01:15.493Z,2.47
2022-11-14T15:03:51.329Z,2.88
2022-11-14T15:06:32.915Z,2.97
2022-11-14T15:09:11.552Z,2.50
2022-11-14T15:11:44.398Z,3.47
2022-11-14T15:14:16.457Z,2.88
2022-11-14T15:16:46.796Z,2.80
2022-11-14T15:19:17.547Z,2.90
2022-11-14T15:21:46.469Z,2.97
2022-11-14T15:24:20.901Z,3.08
2022-11-14T15:26:51.123Z,2.60
2022-11-14T15:29:26.796Z,2.97
2022-11-14T15:32:03.763Z,2.92
2022-11-14T15:34:34.748Z,2.70
2022-11-14T15:37:14.855Z,2.78
2022-11-14T15:39:44.549Z,2.53
2022-11-14T15:42:22.766Z,3.25
2022-11-14T15:44:52.480Z,3.15
2022-11-14T15:47:29.332Z,3.15
2022-11-14T15:50:05.112Z,3.08
2022-11-14T15:52:38.200Z,3.17
2022-11-14T15:55:17.587Z,3.08
2022-11-14T15:57:55.882Z,2.70
2022-11-14T16:00:35.787Z,2.95
2022-11-14T16:03:04.620Z,2.90
2022-11-14T16:05:33.547Z,2.83
2022-11-14T16:08:02.373Z,2.70
2022-11-14T16:10:31.592Z,3.10
2022-11-14T16:13:00.393Z,3.10
2022-11-14T16:15:28.919Z,2.75
2022-11-14T16:17:57.662Z,2.97
2022-11-14T16:20:29.344Z,3.00
2022-11-14T16:22:58.570Z,2.58
2022-11-14T16:25:32.224Z,2.50
2022-11-14T16:30:29.922Z,2.80
2022-11-14T16:32:58.825Z,2.70
2022-11-14T16:35:28.816Z,2.85
2022-11-14T16:37:57.726Z,2.67
2022-11-14T16:40:28.911Z,2.78
2022-11-14T16:42:59.729Z,2.70
2022-11-14T16:45:29.754Z,2.72
2022-11-14T16:47:58.494Z,2.85
2022-11-14T16:50:27.236Z,2.78
2022-11-14T16:52:56.071Z,2.50
2022-11-14T16:55:24.521Z,2.63
2022-11-14T16:57:53.670Z,2.65
2022-11-14T17:00:22.841Z,2.80
2022-11-14T17:02:51.554Z,2.75
2022-11-14T17:05:20.469Z,2.70
2022-11-14T17:07:49.291Z,2.63
2022-11-14T17:10:18.059Z,2.40
2022-11-14T17:12:46.562Z,2.88
2022-11-14T17:15:15.375Z,2.53
2022-11-14T17:17:51.489Z,2.63
2022-11-14T17:20:20.490Z,2.70
2022-11-14T17:22:48.932Z,2.55
2022-11-14T17:25:17.771Z,2.80
2022-11-14T17:27:46.652Z,2.50
2022-11-14T17:30:15.595Z,2.60
2022-11-14T17:32:44.683Z,2.38
2022-11-14T17:35:13.706Z,2.95
2022-11-14T17:37:42.155Z,2.70
2022-11-14T17:40:15.580Z,2.58
2022-11-14T17:42:44.838Z,2.35
2022-11-14T17:45:13.653Z,2.80
2022-11-14T17:47:42.512Z,2.60
2022-11-14T17:50:11.253Z,2.75
2022-11-14T17:52:40.109Z,2.72
2022-11-14T17:55:09.312Z,2.70
2022-11-14T17:57:38.122Z,2.67
2022-11-14T18:00:08.697Z,3.03
2022-11-14T18:02:37.128Z,2.70
2022-11-14T18:05:06.176Z,2.75
2022-11-14T18:07:35.109Z,2.72
2022-11-14T18:10:03.847Z,2.58
2022-11-14T18:12:32.651Z,2.67
2022-11-14T18:15:01.158Z,2.75
2022-11-14T18:17:29.894Z,2.47
2022-11-14T18:20:01.620Z,2.80
2022-11-14T18:22:30.447Z,2.80
2022-11-14T18:25:06.439Z,2.88
2022-11-14T18:27:37.076Z,2.78
2022-11-14T18:30:26.771Z,2.38
2022-11-14T18:32:55.724Z,2.80
2022-11-14T18:35:24.619Z,2.50
2022-11-14T18:37:53.161Z,2.85
2022-11-14T18:40:23.068Z,2.50
2022-11-14T18:42:51.593Z,2.78
2022-11-14T18:45:20.329Z,2.70
2022-11-14T18:47:52.303Z,2.58
2022-11-14T18:50:20.776Z,2.47
2022-11-14T18:52:49.634Z,2.67
2022-11-14T18:55:18.506Z,2.28
2022-11-14T18:57:47.947Z,2.83
2022-11-14T19:00:17.269Z,2.55
2022-11-14T19:02:50.781Z,2.40
2022-11-14T19:05:19.590Z,2.70
2022-11-14T19:07:48.521Z,2.30
2022-11-14T19:10:17.348Z,2.78
2022-11-14T19:12:49.922Z,2.75
2022-11-14T19:15:18.823Z,2.87
2022-11-14T19:17:49.226Z,2.63
2022-11-14T19:20:18.660Z,2.58
2022-11-14T19:22:47.180Z,2.75
2022-11-14T19:25:15.981Z,2.60
2022-11-14T19:27:44.874Z,2.60
2022-11-14T19:30:14.050Z,2.60
2022-11-14T19:32:42.833Z,2.53
2022-11-14T19:35:14.791Z,2.75
2022-11-14T19:37:47.749Z,2.53
2022-11-14T19:40:16.676Z,2.40
2022-11-14T19:42:45.194Z,2.30
2022-11-14T19:45:13.996Z,2.30
2022-11-14T19:47:42.239Z,2.45
2022-11-14T19:50:11.368Z,2.65
2022-11-14T19:52:40.078Z,2.70
2022-11-14T19:55:08.875Z,2.22
2022-11-14T19:57:38.324Z,2.28
2022-11-14T20:00:07.687Z,2.65
2022-11-14T20:02:40.014Z,2.60
2022-11-14T20:05:09.762Z,2.53
2022-11-14T20:07:38.883Z,2.50
2022-11-14T20:10:07.733Z,2.35
2022-11-14T20:12:36.619Z,2.03
2022-11-14T20:15:06.060Z,2.40
2022-11-14T20:17:34.854Z,2.50
2022-11-14T20:20:03.660Z,2.03
2022-11-14T20:22:32.463Z,2.22
2022-11-14T20:25:01.360Z,2.42
2022-11-14T20:27:30.282Z,2.47
2022-11-14T20:29:58.709Z,2.20
2022-11-14T20:32:27.537Z,2.50
2022-11-14T20:34:56.713Z,2.33
2022-11-14T20:37:25.460Z,2.13
2022-11-14T20:39:54.275Z,2.28
2022-11-14T20:42:23.022Z,2.00
2022-11-14T20:44:51.469Z,2.65
2022-11-14T20:47:20.334Z,2.35
2022-11-14T20:49:49.258Z,2.50
2022-11-14T20:52:18.026Z,2.25
2022-11-14T20:54:46.863Z,2.35
2022-11-14T20:57:16.509Z,2.22
2022-11-14T20:59:45.486Z,2.25
2022-11-14T21:02:14.733Z,2.10
2022-11-14T21:04:43.271Z,2.05
2022-11-14T21:07:12.149Z,2.25
2022-11-14T21:09:41.098Z,2.10
2022-11-14T21:12:09.542Z,2.33
2022-11-14T21:14:38.267Z,2.33
2022-11-14T21:17:07.141Z,2.15
2022-11-14T21:19:36.045Z,2.28
2022-11-14T21:22:04.807Z,2.28
2022-11-14T21:24:38.375Z,2.10
2022-11-14T21:27:10.640Z,2.20
2022-11-14T21:29:39.814Z,2.05
2022-11-14T21:32:08.508Z,2.22
2022-11-14T21:34:37.289Z,2.20
2022-11-14T21:37:06.100Z,2.20
2022-11-14T21:39:34.529Z,1.98
2022-11-14T21:42:03.281Z,2.20
2022-11-14T21:44:32.106Z,2.25
2022-11-14T21:47:00.925Z,2.08
2022-11-14T21:49:29.645Z,2.17
2022-11-14T21:51:58.497Z,2.00
2022-11-14T21:54:27.244Z,2.00
2022-11-14T21:56:56.390Z,2.30
2022-11-14T21:59:28.841Z,2.33
2022-11-14T22:02:15.914Z,2.60
2022-11-14T22:04:44.677Z,2.50
2022-11-14T22:07:13.545Z,2.47
2022-11-14T22:09:45.348Z,2.42
2022-11-14T22:12:14.374Z,2.15
2022-11-14T22:14:43.244Z,2.03
2022-11-14T22:17:11.722Z,2.00
2022-11-14T22:19:40.415Z,2.55
2022-11-14T22:22:09.409Z,2.10
2022-11-14T22:24:37.502Z,2.20
2022-11-14T22:27:09.089Z,2.38
2022-11-14T22:29:37.512Z,1.90
2022-11-14T22:32:06.379Z,2.20
2022-11-14T22:34:35.212Z,2.10
2022-11-14T22:37:04.054Z,2.40
2022-11-14T22:39:32.103Z,2.45
2022-11-14T22:42:00.880Z,2.40
2022-11-14T22:44:29.641Z,2.58
2022-11-14T22:46:58.376Z,2.15
2022-11-14T22:49:27.157Z,2.10
2022-11-14T22:51:55.887Z,2.35
2022-11-14T22:54:27.922Z,2.13
2022-11-14T22:56:57.193Z,2.05
2022-11-14T22:59:25.995Z,2.00
2022-11-14T23:01:54.442Z,2.50
2022-11-14T23:04:23.243Z,2.30
2022-11-14T23:06:51.782Z,2.40
2022-11-14T23:09:20.549Z,2.30
2022-11-14T23:11:49.381Z,2.42
2022-11-14T23:14:18.184Z,2.40
2022-11-14T23:16:46.895Z,2.42
2022-11-14T23:19:15.650Z,2.28
2022-11-14T23:21:44.235Z,2.25
2022-11-14T23:24:15.980Z,2.35
2022-11-14T23:26:44.440Z,2.65
2022-11-14T23:29:15.950Z,2.25
2022-11-14T23:31:44.434Z,3.90
2022-11-14T23:34:13.200Z,4.30
2022-11-14T23:36:42.005Z,3.72
2022-11-14T23:39:10.731Z,3.30
2022-11-14T23:41:39.617Z,2.70
2022-11-14T23:44:08.403Z,2.80
2022-11-14T23:46:37.150Z,2.80
2022-11-14T23:49:05.889Z,2.67
2022-11-14T23:51:35.279Z,2.70
2022-11-14T23:54:04.011Z,2.42
2022-11-14T23:56:33.425Z,2.70
2022-11-14T23:59:02.247Z,2.60
